< < Back
Terminal Aerodrome Forecast


Current Version              Previous Versions:   1  2  3  4  5  6  7  8  9  

Terminal Aerodrome Forecast

835
FTUS44 KBMX 251740
TAFTCL
TAF
KTCL 251740Z 2518/2618 17009KT 6SM -SHRA BR BKN035 OVC110
     FM252200 15008KT P6SM SCT035 BKN050
     FM261200 14008KT P6SM OVC015=

Latest METAR

316
SAUS70 KWBC 252100 RRL
MTRTCL
METAR KTCL 252053Z 12005KT 7SM -RA BKN016 BKN049 BKN060 24/22 A3015 RMK
AO2 RAB38 SLP205 P0001 60001 T02440222 55010


USA.gov is the U.S. government's official web portal to all federal, state and local government web resources and services.